createdAt,value
2024-03-23T00:05:05.302Z,10.20
2024-03-23T00:10:16.864Z,10.30
2024-03-23T00:15:24.850Z,10.10
2024-03-23T00:20:34.549Z,10.10
2024-03-23T00:25:43.926Z,10.30
2024-03-23T00:30:55.520Z,10.20
2024-03-23T00:36:02.910Z,10.00
2024-03-23T00:41:10.968Z,10.00
2024-03-23T00:46:19.139Z,9.90
2024-03-23T00:51:27.524Z,9.90
2024-03-23T00:56:34.425Z,9.80
2024-03-23T01:01:42.961Z,9.80
2024-03-23T01:06:54.705Z,9.90
2024-03-23T01:12:03.284Z,9.80
2024-03-23T01:17:10.259Z,9.70
2024-03-23T01:22:24.307Z,9.90
2024-03-23T01:27:32.826Z,9.80
2024-03-23T01:32:40.963Z,9.80
2024-03-23T01:37:49.534Z,9.90
2024-03-23T01:43:03.966Z,10.10
2024-03-23T01:48:12.458Z,10.10
2024-03-23T01:53:22.439Z,10.10
2024-03-23T01:58:30.896Z,10.20
2024-03-23T02:03:40.120Z,10.30
2024-03-23T02:08:47.775Z,10.30
2024-03-23T02:13:57.746Z,10.00
2024-03-23T02:19:07.783Z,10.10
2024-03-23T02:24:14.877Z,10.10
2024-03-23T02:29:22.227Z,10.30
2024-03-23T02:34:29.633Z,10.10
2024-03-23T02:39:38.061Z,10.10
2024-03-23T02:44:46.631Z,9.80
2024-03-23T02:49:58.300Z,9.60
2024-03-23T02:55:05.862Z,9.50
2024-03-23T03:00:15.408Z,9.40
2024-03-23T03:05:23.842Z,9.40
2024-03-23T03:10:33.917Z,9.60
2024-03-23T03:15:42.281Z,9.60
2024-03-23T03:20:50.859Z,9.30
2024-03-23T03:26:00.988Z,9.30
2024-03-23T03:31:09.088Z,9.40
2024-03-23T03:36:19.495Z,9.30
2024-03-23T03:41:26.677Z,9.40
2024-03-23T03:46:33.824Z,9.50
2024-03-23T03:51:40.586Z,9.70
2024-03-23T03:56:47.831Z,9.80
2024-03-23T04:01:54.879Z,9.80
2024-03-23T04:07:06.641Z,9.80
2024-03-23T04:12:13.438Z,9.80
2024-03-23T04:17:20.486Z,9.80
2024-03-23T04:22:32.385Z,9.80
2024-03-23T04:27:40.100Z,9.80
2024-03-23T04:32:47.042Z,9.90
2024-03-23T04:38:00.404Z,9.90
2024-03-23T04:43:08.707Z,9.90
2024-03-23T04:48:15.606Z,9.90
2024-03-23T04:53:25.556Z,9.90
2024-03-23T04:58:32.310Z,10.10
2024-03-23T05:03:39.707Z,10.20
2024-03-23T05:08:48.110Z,10.20
2024-03-23T05:14:05.584Z,10.30
2024-03-23T05:19:06.324Z,10.10
2024-03-23T05:24:14.833Z,10.10
2024-03-23T05:29:23.195Z,10.20
2024-03-23T05:34:31.652Z,10.20
2024-03-23T05:39:41.282Z,10.20
2024-03-23T05:44:50.190Z,10.30
2024-03-23T05:50:00.359Z,10.40
2024-03-23T05:55:10.519Z,10.50
2024-03-23T06:00:17.732Z,10.60
2024-03-23T06:05:25.114Z,10.50
2024-03-23T06:10:34.116Z,10.50
2024-03-23T06:15:42.809Z,10.70
2024-03-23T06:20:49.831Z,10.80
2024-03-23T06:25:59.523Z,10.70
2024-03-23T06:31:08.140Z,10.70
2024-03-23T06:36:15.963Z,10.70
2024-03-23T06:41:27.179Z,10.80
2024-03-23T06:46:35.871Z,10.80
2024-03-23T06:51:44.584Z,10.90
2024-03-23T06:56:52.981Z,11.00
2024-03-23T07:01:59.836Z,11.10
2024-03-23T07:07:08.980Z,11.10
2024-03-23T07:12:19.277Z,11.30
2024-03-23T07:17:28.460Z,11.30
2024-03-23T07:22:35.997Z,11.60
2024-03-23T07:27:44.753Z,11.60
2024-03-23T07:33:33.688Z,11.60
2024-03-23T07:39:03.598Z,11.80
2024-03-23T07:44:12.067Z,12.00
2024-03-23T07:49:20.492Z,12.10
2024-03-23T07:54:27.406Z,12.00
2024-03-23T07:59:37.603Z,11.90
2024-03-23T08:04:45.978Z,11.80
2024-03-23T08:09:54.813Z,11.90
2024-03-23T08:15:03.146Z,12.00
2024-03-23T08:20:19.848Z,12.10
2024-03-23T08:25:27.372Z,12.30
2024-03-23T08:30:36.753Z,12.60
2024-03-23T08:35:47.616Z,13.40
2024-03-23T08:41:10.648Z,14.20
2024-03-23T08:46:22.095Z,14.40
2024-03-23T08:51:31.523Z,14.60
2024-03-23T08:56:38.840Z,14.50
2024-03-23T09:01:45.721Z,14.30
2024-03-23T09:06:55.078Z,14.30
2024-03-23T09:12:04.881Z,14.20
2024-03-23T09:17:14.978Z,14.20
2024-03-23T09:22:31.987Z,14.20
2024-03-23T09:27:44.410Z,14.20
2024-03-23T09:32:53.708Z,14.40
2024-03-23T09:38:07.039Z,14.40
2024-03-23T09:43:17.432Z,14.70
2024-03-23T09:48:32.909Z,16.50
2024-03-23T09:53:42.666Z,17.10
2024-03-23T09:58:51.148Z,15.90
2024-03-23T10:03:58.576Z,15.80
2024-03-23T10:09:08.661Z,16.10
2024-03-23T10:14:18.386Z,15.50
2024-03-23T10:19:35.422Z,15.70
2024-03-23T10:24:46.568Z,16.30
2024-03-23T10:29:53.642Z,16.20
2024-03-23T10:35:23.693Z,17.30
2024-03-23T10:40:32.808Z,16.80
2024-03-23T10:45:45.458Z,17.70
2024-03-23T10:50:52.235Z,17.60
2024-03-23T10:56:01.384Z,17.10
2024-03-23T11:01:10.624Z,17.60
2024-03-23T11:06:37.909Z,17.20
2024-03-23T11:11:47.449Z,17.70
2024-03-23T11:17:14.546Z,17.20
2024-03-23T11:22:45.457Z,17.20
2024-03-23T11:27:57.508Z,17.00
2024-03-23T11:33:05.996Z,16.50
2024-03-23T11:38:21.668Z,17.10
2024-03-23T11:43:30.796Z,17.40
2024-03-23T11:48:38.511Z,17.20
2024-03-23T11:53:48.273Z,17.70
2024-03-23T11:59:01.783Z,17.90
2024-03-23T12:04:05.176Z,18.10
2024-03-23T12:09:12.219Z,18.20
2024-03-23T12:14:19.299Z,18.40
2024-03-23T12:19:27.830Z,18.50
2024-03-23T12:24:37.129Z,17.80
2024-03-23T12:29:46.409Z,17.60
2024-03-23T12:34:55.735Z,17.20
2024-03-23T12:40:06.242Z,17.40
2024-03-23T12:45:13.466Z,17.90
2024-03-23T12:50:24.538Z,18.40
2024-03-23T12:55:33.151Z,18.00
2024-03-23T13:00:40.935Z,17.20
2024-03-23T13:05:51.009Z,17.50
2024-03-23T13:10:58.021Z,18.00
2024-03-23T13:16:06.566Z,18.10
2024-03-23T13:21:14.826Z,17.70
2024-03-23T13:26:22.275Z,17.40
2024-03-23T13:31:30.831Z,18.00
2024-03-23T13:36:37.926Z,18.60
2024-03-23T13:41:47.679Z,18.80
2024-03-23T13:46:54.774Z,17.80
2024-03-23T13:52:02.654Z,17.20
2024-03-23T13:57:09.653Z,17.20
2024-03-23T14:02:16.381Z,17.60
2024-03-23T14:07:23.408Z,18.20
2024-03-23T14:25:16.688Z,18.50
2024-03-23T14:30:24.365Z,18.30
2024-03-23T14:35:31.487Z,17.90
2024-03-23T14:40:38.690Z,17.40
2024-03-23T14:46:21.146Z,17.00
2024-03-23T14:51:30.008Z,17.10
2024-03-23T14:56:37.075Z,16.60
2024-03-23T15:01:44.288Z,16.50
2024-03-23T15:06:51.825Z,15.90
2024-03-23T15:11:58.676Z,15.70
2024-03-23T15:17:07.417Z,14.90
2024-03-23T15:22:14.619Z,13.30
2024-03-23T15:27:21.815Z,13.00
2024-03-23T15:32:28.981Z,12.20
2024-03-23T15:37:36.221Z,11.60
2024-03-23T15:42:43.425Z,11.20
2024-03-23T15:47:51.038Z,10.70
2024-03-23T15:52:58.262Z,9.40
2024-03-23T15:58:05.095Z,8.60
2024-03-23T16:03:12.095Z,8.20
2024-03-23T16:08:21.465Z,7.80
2024-03-23T16:13:29.754Z,7.30
2024-03-23T16:18:41.682Z,6.60
2024-03-23T16:23:48.756Z,6.50
2024-03-23T16:28:55.624Z,6.40
2024-03-23T16:34:03.317Z,6.50
2024-03-23T16:39:10.783Z,6.00
2024-03-23T16:44:18.089Z,5.70
2024-03-23T16:49:24.938Z,5.50
2024-03-23T16:54:32.017Z,5.70
2024-03-23T16:59:39.416Z,5.70
2024-03-23T17:04:46.915Z,5.70
2024-03-23T17:09:54.565Z,5.40
2024-03-23T17:15:01.547Z,5.40
2024-03-23T17:20:10.829Z,5.40
2024-03-23T17:25:17.640Z,5.40
2024-03-23T17:30:24.804Z,5.30
2024-03-23T17:35:32.139Z,5.60
2024-03-23T17:40:39.339Z,5.60
2024-03-23T17:45:46.335Z,5.70
2024-03-23T17:51:04.528Z,5.60
2024-03-23T17:56:12.338Z,5.60
2024-03-23T18:01:21.490Z,5.70
2024-03-23T18:06:28.748Z,5.90
2024-03-23T18:11:35.674Z,5.60
2024-03-23T18:16:45.020Z,5.70
2024-03-23T18:21:52.008Z,5.80
2024-03-23T18:26:59.211Z,5.80
2024-03-23T18:32:06.290Z,5.80
2024-03-23T18:37:13.211Z,6.00
2024-03-23T18:42:20.424Z,5.70
2024-03-23T18:47:27.407Z,5.80
2024-03-23T18:52:34.168Z,5.70
2024-03-23T18:57:41.452Z,5.80
2024-03-23T19:02:48.501Z,5.70
2024-03-23T19:07:55.620Z,5.70
2024-03-23T19:13:02.925Z,5.60
2024-03-23T19:18:09.863Z,5.40
2024-03-23T19:23:17.237Z,5.20
2024-03-23T19:28:24.681Z,5.20
2024-03-23T19:33:32.721Z,5.40
2024-03-23T19:38:39.526Z,5.40
2024-03-23T19:43:46.560Z,5.50
2024-03-23T19:48:53.793Z,5.50
2024-03-23T19:54:01.559Z,5.00
2024-03-23T19:59:10.655Z,4.50
2024-03-23T20:04:18.318Z,4.10
2024-03-23T20:09:27.194Z,4.00
2024-03-23T20:14:34.096Z,4.20
2024-03-23T20:19:41.413Z,4.30
2024-03-23T20:24:48.816Z,4.10
2024-03-23T20:29:56.005Z,4.20
2024-03-23T20:35:03.013Z,4.60
2024-03-23T20:40:11.441Z,4.60
2024-03-23T20:45:18.225Z,4.30
2024-03-23T20:50:25.194Z,4.20
2024-03-23T20:55:32.781Z,4.10
2024-03-23T21:00:39.839Z,4.10
2024-03-23T21:05:48.142Z,4.10
2024-03-23T21:10:59.179Z,4.10
2024-03-23T21:16:06.389Z,3.90
2024-03-23T21:21:13.357Z,3.90
2024-03-23T21:26:20.203Z,3.80
2024-03-23T21:31:26.979Z,3.80
2024-03-23T21:36:34.092Z,3.60
2024-03-23T21:41:41.277Z,3.60
2024-03-23T21:46:48.414Z,3.50
2024-03-23T21:51:55.556Z,3.60
2024-03-23T21:57:02.603Z,3.40
2024-03-23T22:02:09.897Z,3.30
2024-03-23T22:07:17.662Z,3.70
2024-03-23T22:12:26.582Z,4.00
2024-03-23T22:17:33.311Z,3.50
2024-03-23T22:22:40.462Z,3.40
2024-03-23T22:27:47.629Z,3.30
2024-03-23T22:32:56.226Z,3.10
2024-03-23T22:38:04.640Z,3.30
2024-03-23T22:43:11.483Z,3.40
2024-03-23T22:48:18.467Z,3.20
2024-03-23T22:53:27.201Z,3.20
2024-03-23T22:58:35.505Z,3.00
2024-03-23T23:03:42.906Z,3.30
2024-03-23T23:08:49.933Z,3.10
2024-03-23T23:13:57.190Z,3.20
2024-03-23T23:19:07.008Z,3.20
2024-03-23T23:24:14.351Z,3.20
2024-03-23T23:29:21.832Z,3.10
2024-03-23T23:34:29.352Z,3.00
2024-03-23T23:39:36.558Z,3.00
2024-03-23T23:44:43.704Z,3.10
2024-03-23T23:49:50.675Z,2.90
2024-03-23T23:54:58.055Z,3.00
